createdAt,value
2018-08-25T00:02:01.659Z,3.33
2018-08-25T00:04:29.692Z,3.27
2018-08-25T00:06:57.531Z,3.47
2018-08-25T00:09:27.973Z,3.20
2018-08-25T00:11:55.960Z,3.27
2018-08-25T00:14:25.074Z,3.37
2018-08-25T00:16:53.600Z,3.33
2018-08-25T00:19:23.888Z,3.53
2018-08-25T00:21:52.087Z,3.53
2018-08-25T00:24:20.470Z,3.70
2018-08-25T00:26:48.996Z,3.40
2018-08-25T00:29:16.647Z,3.63
2018-08-25T00:31:45.441Z,3.43
2018-08-25T00:34:12.888Z,2.87
2018-08-25T00:36:40.925Z,2.60
2018-08-25T00:39:08.588Z,3.10
2018-08-25T00:41:36.496Z,3.10
2018-08-25T00:44:04.417Z,3.00
2018-08-25T00:46:32.310Z,3.23
2018-08-25T00:48:59.959Z,2.97
2018-08-25T00:51:27.613Z,3.30
2018-08-25T00:53:55.188Z,3.90
2018-08-25T00:56:22.740Z,3.63
2018-08-25T00:58:51.629Z,3.53
2018-08-25T01:01:19.843Z,3.30
2018-08-25T01:03:47.369Z,3.17
2018-08-25T01:06:14.851Z,3.70
2018-08-25T01:08:42.745Z,3.40
2018-08-25T01:11:10.448Z,3.40
2018-08-25T01:13:39.595Z,3.33
2018-08-25T01:16:07.199Z,3.47
2018-08-25T01:18:34.748Z,3.60
2018-08-25T01:21:02.633Z,3.20
2018-08-25T01:23:30.204Z,3.77
2018-08-25T01:25:58.426Z,3.20
2018-08-25T01:28:26.922Z,3.40
2018-08-25T01:30:55.161Z,3.70
2018-08-25T01:33:25.020Z,3.97
2018-08-25T01:35:53.734Z,3.30
2018-08-25T01:38:24.742Z,3.13
2018-08-25T01:40:53.979Z,3.43
2018-08-25T01:43:21.837Z,3.40
2018-08-25T01:45:50.040Z,3.20
2018-08-25T01:48:18.903Z,3.50
2018-08-25T01:51:10.126Z,3.60
2018-08-25T01:53:38.575Z,3.50
2018-08-25T01:56:06.564Z,3.80
2018-08-25T02:01:28.351Z,3.63
2018-08-25T02:03:55.991Z,3.20
2018-08-25T02:06:23.557Z,3.00
2018-08-25T02:08:51.029Z,3.63
2018-08-25T02:11:18.682Z,3.00
2018-08-25T02:13:47.151Z,3.37
2018-08-25T02:16:16.534Z,3.40
2018-08-25T02:18:44.774Z,3.20
2018-08-25T02:21:13.489Z,3.77
2018-08-25T02:23:42.287Z,3.17
2018-08-25T02:26:11.091Z,3.67
2018-08-25T02:28:39.913Z,3.93
2018-08-25T02:31:29.672Z,3.20
2018-08-25T02:33:57.212Z,3.00
2018-08-25T02:36:26.000Z,3.30
2018-08-25T02:38:53.806Z,3.30
2018-08-25T02:41:21.552Z,3.20
2018-08-25T02:43:50.011Z,3.13
2018-08-25T02:46:18.603Z,3.37
2018-08-25T02:48:46.470Z,3.23
2018-08-25T02:51:16.581Z,2.97
2018-08-25T02:53:44.287Z,3.27
2018-08-25T02:56:13.022Z,2.87
2018-08-25T02:58:40.894Z,3.40
2018-08-25T03:01:08.724Z,3.20
2018-08-25T03:06:30.255Z,3.17
2018-08-25T03:09:00.055Z,3.40
2018-08-25T03:11:34.121Z,3.30
2018-08-25T03:14:07.661Z,3.70
2018-08-25T03:16:36.029Z,3.10
2018-08-25T03:19:04.587Z,3.30
2018-08-25T03:21:32.530Z,3.37
2018-08-25T03:24:00.467Z,3.20
2018-08-25T03:26:28.378Z,3.80
2018-08-25T03:28:57.093Z,2.90
2018-08-25T03:31:24.920Z,3.57
2018-08-25T03:33:53.175Z,3.20
2018-08-25T03:36:22.018Z,3.17
2018-08-25T03:38:50.777Z,3.50
2018-08-25T03:41:19.244Z,2.77
2018-08-25T03:43:52.517Z,3.70
2018-08-25T03:46:24.533Z,3.60
2018-08-25T03:48:52.561Z,3.30
2018-08-25T03:51:20.329Z,3.20
2018-08-25T03:53:50.833Z,3.20
2018-08-25T03:56:18.970Z,3.40
2018-08-25T03:58:46.943Z,3.30
2018-08-25T04:01:14.431Z,3.23
2018-08-25T04:03:42.099Z,3.03
2018-08-25T04:06:11.125Z,3.50
2018-08-25T04:08:39.569Z,3.70
2018-08-25T04:11:07.697Z,3.37
2018-08-25T04:13:35.275Z,2.80
2018-08-25T04:16:02.959Z,3.10
2018-08-25T04:18:32.574Z,3.47
2018-08-25T04:21:00.501Z,3.40
2018-08-25T04:23:29.272Z,3.77
2018-08-25T04:25:57.019Z,3.70
2018-08-25T04:28:24.953Z,3.22
2018-08-25T04:30:52.868Z,3.00
2018-08-25T04:33:21.758Z,3.73
2018-08-25T04:35:52.508Z,3.20
2018-08-25T04:38:20.581Z,3.40
2018-08-25T04:40:48.673Z,3.53
2018-08-25T04:43:16.730Z,3.77
2018-08-25T04:45:44.593Z,3.80
2018-08-25T04:48:12.448Z,3.33
2018-08-25T04:50:40.944Z,3.47
2018-08-25T04:53:08.968Z,3.60
2018-08-25T04:55:37.384Z,3.93
2018-08-25T04:58:06.165Z,3.33
2018-08-25T05:00:34.557Z,3.67
2018-08-25T05:03:02.405Z,3.57
2018-08-25T05:05:31.194Z,3.40
2018-08-25T05:07:59.011Z,3.03
2018-08-25T05:10:27.879Z,3.23
2018-08-25T05:12:56.576Z,3.67
2018-08-25T05:15:24.591Z,3.13
2018-08-25T05:17:52.271Z,3.53
2018-08-25T05:20:20.057Z,3.03
2018-08-25T05:22:48.730Z,3.50
2018-08-25T05:25:16.852Z,2.97
2018-08-25T05:27:44.915Z,3.10
2018-08-25T05:30:13.191Z,2.53
2018-08-25T05:32:41.040Z,2.43
2018-08-25T05:35:08.629Z,3.03
2018-08-25T05:37:36.432Z,3.40
2018-08-25T05:40:04.376Z,2.90
2018-08-25T05:42:33.088Z,3.43
2018-08-25T05:45:01.037Z,3.03
2018-08-25T05:47:28.781Z,3.00
2018-08-25T05:49:56.587Z,2.57
2018-08-25T05:52:24.341Z,2.70
2018-08-25T05:54:52.921Z,3.00
2018-08-25T05:57:20.890Z,2.53
2018-08-25T05:59:48.583Z,2.10
2018-08-25T06:02:16.386Z,2.63
2018-08-25T06:04:44.065Z,2.73
2018-08-25T06:07:11.886Z,2.70
2018-08-25T06:09:39.605Z,2.60
2018-08-25T06:12:08.819Z,2.47
2018-08-25T06:14:40.223Z,3.30
2018-08-25T06:17:08.119Z,2.37
2018-08-25T06:19:36.532Z,3.03
2018-08-25T06:24:53.344Z,2.50
2018-08-25T06:27:21.498Z,2.63
2018-08-25T06:29:49.276Z,2.70
2018-08-25T06:32:18.937Z,2.77
2018-08-25T07:21:24.507Z,3.73
2018-08-25T07:23:53.330Z,3.63
2018-08-25T07:26:21.175Z,3.63
2018-08-25T07:28:49.188Z,4.57
2018-08-25T07:31:17.447Z,4.27
2018-08-25T07:33:45.799Z,3.70
2018-08-25T07:36:14.247Z,3.80
2018-08-25T07:38:42.256Z,4.47
2018-08-25T07:41:09.905Z,4.37
2018-08-25T07:43:37.837Z,4.50
2018-08-25T07:46:08.258Z,4.00
2018-08-25T07:48:36.203Z,4.37
2018-08-25T07:51:08.297Z,4.50
2018-08-25T07:56:29.473Z,4.33
2018-08-25T07:59:13.168Z,3.90
2018-08-25T08:01:42.938Z,4.57
2018-08-25T08:09:53.529Z,4.33
2018-08-25T08:12:21.311Z,4.60
2018-08-25T08:14:50.660Z,5.13
2018-08-25T08:17:19.166Z,4.80
2018-08-25T08:19:47.139Z,5.40
2018-08-25T08:22:14.869Z,5.60
2018-08-25T08:24:43.114Z,5.80
2018-08-25T08:29:51.917Z,5.67
2018-08-25T08:32:19.466Z,5.97
2018-08-25T08:34:47.641Z,6.20
2018-08-25T08:37:16.730Z,7.00
2018-08-25T08:39:44.751Z,5.90
2018-08-25T08:42:13.430Z,5.90
2018-08-25T08:44:41.309Z,6.17
2018-08-25T08:47:09.008Z,6.17
2018-08-25T08:49:46.455Z,6.10
2018-08-25T08:52:06.924Z,6.30
2018-08-25T08:54:34.664Z,5.10
2018-08-25T08:57:02.408Z,5.73
2018-08-25T08:59:29.964Z,5.03
2018-08-25T09:01:57.628Z,4.57
2018-08-25T09:04:25.414Z,5.53
2018-08-25T09:06:53.056Z,5.10
2018-08-25T09:09:20.680Z,4.73
2018-08-25T09:11:48.368Z,5.10
2018-08-25T09:14:16.101Z,4.20
2018-08-25T09:16:53.581Z,5.50
2018-08-25T09:19:21.466Z,4.20
2018-08-25T09:21:49.047Z,5.60
2018-08-25T09:24:16.617Z,6.00
2018-08-25T09:26:44.255Z,5.47
2018-08-25T09:29:11.936Z,5.83
2018-08-25T09:31:39.886Z,5.37
2018-08-25T09:34:13.508Z,5.77
2018-08-25T09:36:42.233Z,5.97
2018-08-25T09:39:10.831Z,6.00
2018-08-25T09:41:39.419Z,5.83
2018-08-25T09:44:10.338Z,5.60
2018-08-25T09:46:38.742Z,5.53
2018-08-25T09:49:10.370Z,5.97
2018-08-25T09:51:40.696Z,5.83
2018-08-25T09:54:13.931Z,6.47
2018-08-25T09:56:46.714Z,5.00
2018-08-25T09:59:15.751Z,5.90
2018-08-25T10:01:50.683Z,5.30
2018-08-25T10:04:18.286Z,4.80
2018-08-25T10:06:46.040Z,0.80
2018-08-25T10:09:13.731Z,0.57
2018-08-25T10:11:41.299Z,0.60
2018-08-25T10:14:09.544Z,0.50
2018-08-25T10:16:37.245Z,0.60
2018-08-25T10:19:04.979Z,0.73
2018-08-25T10:21:32.587Z,0.90
2018-08-25T10:24:00.175Z,1.10
2018-08-25T10:26:27.660Z,0.93
2018-08-25T10:28:55.569Z,1.40
2018-08-25T10:31:22.945Z,1.00
2018-08-25T10:33:50.591Z,1.30
2018-08-25T10:36:18.068Z,1.37
2018-08-25T10:38:45.570Z,1.70
2018-08-25T10:41:13.081Z,1.70
2018-08-25T10:43:40.533Z,2.33
2018-08-25T10:46:08.059Z,2.60
2018-08-25T10:48:35.497Z,2.70
2018-08-25T10:51:03.149Z,2.33
2018-08-25T10:53:30.818Z,2.07
2018-08-25T10:55:58.680Z,1.77
2018-08-25T10:58:33.426Z,1.50
2018-08-25T11:01:01.370Z,1.40
2018-08-25T11:03:30.991Z,1.50
2018-08-25T11:05:58.716Z,1.60
2018-08-25T11:08:27.147Z,1.50
2018-08-25T11:10:54.619Z,1.37
2018-08-25T11:13:24.040Z,1.97
2018-08-25T11:15:51.543Z,4.07
2018-08-25T11:18:19.711Z,2.27
2018-08-25T11:20:47.842Z,3.10
2018-08-25T11:23:15.254Z,1.87
2018-08-25T11:25:42.757Z,2.50
2018-08-25T11:28:10.445Z,2.07
2018-08-25T11:30:46.349Z,1.70
2018-08-25T11:33:20.427Z,1.60
2018-08-25T11:35:48.519Z,1.40
2018-08-25T11:38:16.169Z,1.23
2018-08-25T11:40:45.358Z,1.47
2018-08-25T11:43:12.895Z,1.07
2018-08-25T11:45:40.555Z,0.93
2018-08-25T11:48:08.547Z,1.10
2018-08-25T11:50:36.324Z,0.90
2018-08-25T11:53:04.373Z,0.80
2018-08-25T11:55:32.332Z,1.00
2018-08-25T11:58:02.976Z,0.77
2018-08-25T12:00:30.624Z,0.97
2018-08-25T12:02:58.186Z,0.80
2018-08-25T12:05:26.468Z,1.17
2018-08-25T12:07:54.092Z,1.03
2018-08-25T12:10:21.651Z,1.10
2018-08-25T12:12:49.295Z,2.43
2018-08-25T12:15:16.869Z,1.20
2018-08-25T12:17:47.879Z,1.20
2018-08-25T12:20:16.931Z,1.50
2018-08-25T12:22:44.619Z,1.30
2018-08-25T12:25:12.208Z,1.47
2018-08-25T12:27:40.161Z,1.30
2018-08-25T12:30:09.679Z,1.57
2018-08-25T12:32:39.635Z,1.30
2018-08-25T12:35:08.546Z,1.00
2018-08-25T12:37:43.066Z,1.00
2018-08-25T12:40:11.494Z,1.00
2018-08-25T12:42:48.723Z,1.23
2018-08-25T12:45:27.961Z,1.30
2018-08-25T12:47:55.799Z,1.10
2018-08-25T12:50:23.497Z,1.40
2018-08-25T12:52:51.441Z,2.20
2018-08-25T12:55:19.129Z,2.00
2018-08-25T12:57:47.846Z,1.93
2018-08-25T13:00:18.636Z,2.20
2018-08-25T13:02:46.786Z,2.10
2018-08-25T13:05:14.211Z,2.10
2018-08-25T13:07:43.123Z,2.27
2018-08-25T13:10:15.436Z,2.40
2018-08-25T13:12:43.801Z,2.20
2018-08-25T13:15:23.722Z,1.90
2018-08-25T13:17:54.660Z,2.10
2018-08-25T13:20:34.031Z,2.50
2018-08-25T13:23:04.504Z,2.50
2018-08-25T13:25:33.350Z,2.47
2018-08-25T13:28:01.107Z,3.03
2018-08-25T13:30:29.484Z,3.13
2018-08-25T13:33:12.882Z,3.17
2018-08-25T13:35:41.014Z,2.30
2018-08-25T13:38:08.925Z,2.10
2018-08-25T13:40:36.519Z,2.83
2018-08-25T13:43:04.093Z,3.17
2018-08-25T13:45:31.676Z,2.30
2018-08-25T13:47:59.201Z,2.00
2018-08-25T13:50:26.850Z,1.33
2018-08-25T13:52:54.526Z,2.00
2018-08-25T13:55:22.106Z,1.87
2018-08-25T13:57:49.613Z,1.70
2018-08-25T14:00:17.137Z,2.00
2018-08-25T14:02:44.759Z,1.83
2018-08-25T14:05:12.271Z,2.10
2018-08-25T14:07:42.148Z,2.27
2018-08-25T14:10:09.632Z,2.40
2018-08-25T14:12:37.117Z,2.30
2018-08-25T14:15:04.799Z,1.93
2018-08-25T14:17:32.360Z,2.00
2018-08-25T14:20:00.101Z,1.97
2018-08-25T14:22:27.622Z,1.70
2018-08-25T14:24:55.178Z,1.90
2018-08-25T14:27:31.564Z,2.30
2018-08-25T14:30:00.878Z,1.77
2018-08-25T14:32:28.952Z,1.10
2018-08-25T14:34:56.585Z,1.10
2018-08-25T14:37:24.175Z,1.30
2018-08-25T14:39:51.904Z,1.00
2018-08-25T14:42:20.116Z,0.83
2018-08-25T14:44:48.281Z,0.80
2018-08-25T14:47:16.197Z,0.63
2018-08-25T14:49:43.756Z,0.70
2018-08-25T14:52:11.257Z,0.67
2018-08-25T14:54:38.923Z,0.70
2018-08-25T14:57:06.789Z,0.60
2018-08-25T14:59:35.186Z,0.77
2018-08-25T15:02:02.736Z,0.90
2018-08-25T15:04:30.408Z,0.80
2018-08-25T15:06:59.006Z,0.60
2018-08-25T15:09:27.635Z,0.60
2018-08-25T15:11:55.359Z,0.60
2018-08-25T15:14:23.807Z,0.70
2018-08-25T15:16:51.342Z,0.70
2018-08-25T15:19:19.414Z,0.60
2018-08-25T15:21:47.186Z,0.60
2018-08-25T15:24:14.758Z,0.70
2018-08-25T15:26:43.263Z,0.63
2018-08-25T15:29:11.073Z,0.80
2018-08-25T15:31:38.859Z,0.70
2018-08-25T15:34:07.981Z,0.53
2018-08-25T15:36:35.603Z,0.80
2018-08-25T15:39:06.625Z,0.57
2018-08-25T15:41:34.185Z,0.80
2018-08-25T15:44:01.804Z,0.60
2018-08-25T15:46:29.390Z,0.67
2018-08-25T15:48:58.858Z,0.90
2018-08-25T15:51:26.637Z,0.60
2018-08-25T15:53:54.105Z,0.73
2018-08-25T15:56:23.002Z,0.60
2018-08-25T15:58:50.628Z,0.77
2018-08-25T16:01:18.722Z,0.63
2018-08-25T16:03:46.335Z,0.60
2018-08-25T16:06:56.974Z,1.00
2018-08-25T16:09:56.448Z,0.77
2018-08-25T17:04:27.089Z,0.70
2018-08-25T17:06:57.025Z,0.60
2018-08-25T17:09:26.540Z,0.50
2018-08-25T17:11:54.864Z,0.70
2018-08-25T17:14:25.584Z,0.87
2018-08-25T17:16:53.475Z,0.70
2018-08-25T17:19:30.634Z,0.80
2018-08-25T18:39:41.953Z,1.17
2018-08-25T18:42:10.355Z,1.10
2018-08-25T18:44:50.160Z,1.20
2018-08-25T18:47:18.600Z,1.07
2018-08-25T18:50:00.783Z,1.33
2018-08-25T18:52:41.669Z,1.00
2018-08-25T18:55:18.409Z,0.90
2018-08-25T18:57:56.368Z,1.27
2018-08-25T19:00:25.696Z,0.97
2018-08-25T19:02:54.396Z,1.00
2018-08-25T19:05:38.692Z,0.70
2018-08-25T19:08:08.651Z,0.87
2018-08-25T19:10:46.345Z,1.10
2018-08-25T19:13:21.137Z,0.80
2018-08-25T19:15:53.074Z,1.00
2018-08-25T19:18:21.398Z,0.90
2018-08-25T19:20:50.657Z,0.93
2018-08-25T19:23:21.097Z,1.00
2018-08-25T19:26:12.150Z,1.20
2018-08-25T19:28:48.993Z,1.10
2018-08-25T19:31:29.791Z,1.37
2018-08-25T19:37:10.874Z,1.50
2018-08-25T19:40:06.020Z,1.30
2018-08-25T19:42:50.157Z,1.40
2018-08-25T19:45:18.898Z,1.03
2018-08-25T19:48:02.391Z,1.10
2018-08-25T19:50:34.790Z,1.27
2018-08-25T19:53:10.039Z,1.43
2018-08-25T19:55:38.878Z,0.97
2018-08-25T19:58:26.565Z,1.50
2018-08-25T20:01:01.894Z,1.27
2018-08-25T20:03:46.249Z,1.40
2018-08-25T20:06:21.237Z,1.50
2018-08-25T20:08:58.774Z,1.10
2018-08-25T20:11:47.309Z,1.10
2018-08-25T20:14:39.824Z,1.20
2018-08-25T20:18:43.689Z,1.27
2018-08-25T20:21:20.778Z,1.40
2018-08-25T20:26:43.630Z,1.67
2018-08-25T20:29:13.602Z,1.60
2018-08-25T20:31:43.797Z,1.10
2018-08-25T20:34:11.851Z,1.27
2018-08-25T20:36:41.341Z,1.50
2018-08-25T20:39:10.057Z,1.50
2018-08-25T20:41:37.957Z,1.60
2018-08-25T20:44:06.068Z,1.50
2018-08-25T20:46:34.339Z,1.70
2018-08-25T20:49:05.495Z,1.47
2018-08-25T20:51:34.246Z,1.83
2018-08-25T20:54:03.499Z,1.40
2018-08-25T20:56:32.265Z,1.87
2018-08-25T20:59:00.390Z,1.90
2018-08-25T21:01:29.569Z,1.90
2018-08-25T21:03:58.607Z,1.67
2018-08-25T21:06:26.760Z,1.80
2018-08-25T21:08:55.385Z,1.70
2018-08-25T21:11:23.416Z,2.10
2018-08-25T21:13:51.335Z,2.10
2018-08-25T21:16:19.824Z,2.20
2018-08-25T21:18:48.461Z,2.10
2018-08-25T21:21:18.470Z,2.03
2018-08-25T21:23:46.974Z,2.50
2018-08-25T21:26:14.738Z,1.53
2018-08-25T21:28:42.530Z,1.87
2018-08-25T21:31:12.580Z,1.63
2018-08-25T21:33:41.055Z,2.53
2018-08-25T21:36:09.080Z,2.50
2018-08-25T21:38:37.542Z,2.60
2018-08-25T21:41:07.230Z,2.63
2018-08-25T21:43:37.723Z,2.67
2018-08-25T21:46:06.046Z,2.53
2018-08-25T21:48:33.984Z,2.50
2018-08-25T21:51:02.637Z,2.37
2018-08-25T21:53:30.263Z,2.40
2018-08-25T21:55:58.170Z,2.50
2018-08-25T21:58:26.097Z,2.40
2018-08-25T22:00:55.418Z,2.57
2018-08-25T22:03:23.993Z,2.60
2018-08-25T22:05:52.591Z,2.90
2018-08-25T22:08:21.167Z,2.63
2018-08-25T22:10:49.931Z,2.20
2018-08-25T22:13:19.257Z,2.40
2018-08-25T22:15:48.151Z,2.53
2018-08-25T22:18:16.213Z,2.13
2018-08-25T22:20:44.069Z,2.20
2018-08-25T22:23:12.557Z,2.47
2018-08-25T22:25:40.478Z,2.40
2018-08-25T22:28:08.344Z,2.20
2018-08-25T22:30:36.153Z,2.67
2018-08-25T22:33:04.158Z,2.90
2018-08-25T22:35:31.899Z,2.70
2018-08-25T22:37:59.716Z,2.50
2018-08-25T22:40:27.503Z,2.63
2018-08-25T22:42:56.378Z,2.50
2018-08-25T22:45:24.019Z,2.30
2018-08-25T22:47:51.962Z,2.53
2018-08-25T22:50:19.609Z,2.30
2018-08-25T22:52:49.987Z,2.70
2018-08-25T22:55:20.116Z,2.40
2018-08-25T22:57:48.827Z,2.30
2018-08-25T23:00:16.627Z,2.73
2018-08-25T23:02:45.513Z,2.80
2018-08-25T23:05:13.803Z,3.53
2018-08-25T23:07:41.711Z,2.70
2018-08-25T23:10:09.736Z,2.73
2018-08-25T23:12:37.442Z,2.33
2018-08-25T23:15:05.329Z,2.53
2018-08-25T23:17:33.066Z,2.00
2018-08-25T23:20:01.034Z,2.10
2018-08-25T23:22:28.912Z,2.87
2018-08-25T23:24:56.780Z,2.50
2018-08-25T23:27:24.762Z,2.77
2018-08-25T23:29:52.428Z,3.10
2018-08-25T23:32:20.444Z,3.23
2018-08-25T23:34:48.942Z,3.80
2018-08-25T23:37:18.299Z,3.43
2018-08-25T23:39:46.192Z,3.27
2018-08-25T23:42:14.268Z,3.47
2018-08-25T23:44:41.855Z,3.50
2018-08-25T23:47:09.715Z,3.87
2018-08-25T23:49:38.027Z,3.40
2018-08-25T23:52:05.923Z,3.60
2018-08-25T23:54:33.968Z,4.30
2018-08-25T23:57:01.662Z,3.97
2018-08-25T23:59:35.972Z,4.47
